createdAt,value
2022-11-26T00:03:40.559Z,67.15935
2022-11-26T00:08:42.237Z,67.82833
2022-11-26T00:13:43.959Z,68.03471
2022-11-26T00:18:45.789Z,70.57124
2022-11-26T00:23:47.424Z,69.64802
2022-11-26T00:28:49.073Z,68.57195
2022-11-26T00:33:50.668Z,66.13123
2022-11-26T00:38:52.324Z,68.084
2022-11-26T00:43:53.969Z,69.78379
2022-11-26T00:48:55.597Z,68.36338
2022-11-26T00:53:57.337Z,68.1365
2022-11-26T00:58:59.083Z,68.38044
2022-11-26T01:04:00.728Z,67.91205
2022-11-26T01:09:02.476Z,68.67605
2022-11-26T01:14:04.327Z,69.99472
2022-11-26T01:19:06.419Z,67.78897
2022-11-26T01:24:09.059Z,67.579
2022-11-26T01:29:10.784Z,69.19674
2022-11-26T01:34:12.719Z,69.58451
2022-11-26T01:39:14.419Z,68.74268
2022-11-26T01:44:16.159Z,69.16633
2022-11-26T01:49:17.960Z,70.24452
2022-11-26T01:54:19.875Z,69.62037
2022-11-26T01:59:21.603Z,70.14937
2022-11-26T02:04:23.307Z,72.28539
2022-11-26T02:09:25.299Z,70.98997
2022-11-26T02:14:27.321Z,71.00895
2022-11-26T02:19:29.329Z,71.16848
2022-11-26T02:24:31.148Z,70.28157
2022-11-26T02:29:32.924Z,68.33906
2022-11-26T02:34:37.456Z,68.07612
2022-11-26T02:39:40.232Z,67.4236
2022-11-26T02:44:42.047Z,68.90087
2022-11-26T02:49:43.862Z,67.87263
2022-11-26T02:54:45.604Z,69.26893
2022-11-26T02:59:47.439Z,70.20446
2022-11-26T03:04:49.180Z,70.36836
2022-11-26T03:09:50.942Z,69.74724
2022-11-26T03:14:52.777Z,68.826
2022-11-26T03:19:54.591Z,68.84483
2022-11-26T03:24:56.286Z,71.11124
2022-11-26T03:29:58.055Z,75.52765
2022-11-26T03:34:59.772Z,72.40455
2022-11-26T03:40:01.573Z,71.78095
2022-11-26T03:45:03.385Z,72.41372
2022-11-26T03:50:05.165Z,71.59953
2022-11-26T03:55:06.988Z,69.88873
2022-11-26T04:00:08.840Z,71.96504
2022-11-26T04:05:10.691Z,68.55148
2022-11-26T04:10:12.559Z,68.40138
2022-11-26T04:15:15.178Z,69.44319
2022-11-26T04:20:17.151Z,71.1672
2022-11-26T04:25:18.887Z,71.69754
2022-11-26T04:30:20.714Z,73.44679
2022-11-26T04:35:22.488Z,72.37002
2022-11-26T04:40:24.381Z,71.1656
2022-11-26T04:45:26.475Z,69.45215
2022-11-26T04:50:28.288Z,68.98446
2022-11-26T04:55:30.031Z,67.99622
2022-11-26T05:00:31.922Z,71.91029
2022-11-26T05:05:33.784Z,69.57666
2022-11-26T05:10:35.668Z,71.33578
2022-11-26T05:15:37.514Z,73.60883
2022-11-26T05:20:39.301Z,74.09703
2022-11-26T05:25:41.099Z,75.20304
2022-11-26T05:30:42.982Z,70.62065
2022-11-26T05:35:44.950Z,70.44609
2022-11-26T05:40:46.909Z,69.60329
2022-11-26T05:45:48.949Z,69.5254
2022-11-26T05:50:54.487Z,67.84434
2022-11-26T05:55:56.640Z,70.11421
2022-11-26T06:00:58.419Z,73.1782
2022-11-26T06:06:00.092Z,74.02902
2022-11-26T06:11:02.038Z,71.93165
2022-11-26T06:16:03.943Z,73.13691
2022-11-26T06:21:05.718Z,70.45226
2022-11-26T06:26:07.502Z,69.51863
2022-11-26T06:31:09.495Z,70.89571
2022-11-26T06:36:11.419Z,69.78638
2022-11-26T06:41:13.272Z,71.86118
2022-11-26T06:46:14.953Z,70.96752
2022-11-26T06:51:16.798Z,70.92847
2022-11-26T06:56:19.452Z,73.7701
2022-11-26T07:01:21.390Z,80.31566
2022-11-26T07:06:23.110Z,79.14068
2022-11-26T07:11:24.979Z,76.83414
2022-11-26T07:16:27.032Z,75.06683
2022-11-26T07:21:28.725Z,74.86028
2022-11-26T07:26:30.520Z,75.32172
2022-11-26T07:31:32.471Z,72.24667
2022-11-26T07:36:34.089Z,68.86373
2022-11-26T07:41:35.866Z,74.36858
2022-11-26T07:46:37.572Z,72.62783
2022-11-26T07:51:39.349Z,77.29938
2022-11-26T07:56:41.013Z,73.98425
2022-11-26T08:01:42.986Z,72.31677
2022-11-26T08:06:44.917Z,70.71682
2022-11-26T08:11:47.004Z,70.08329
2022-11-26T08:16:49.047Z,69.15384
2022-11-26T08:21:51.138Z,70.45117
2022-11-26T08:26:52.983Z,69.60526
2022-11-26T08:31:54.883Z,69.88093
2022-11-26T08:36:56.674Z,67.8322
2022-11-26T08:41:58.710Z,67.30429
2022-11-26T08:47:00.526Z,70.84759
2022-11-26T08:52:02.404Z,70.32379
2022-11-26T08:57:04.197Z,69.75629
2022-11-26T09:02:05.941Z,68.79328
2022-11-26T09:07:07.845Z,68.93286
2022-11-26T09:12:09.717Z,69.47165
2022-11-26T09:17:11.433Z,69.00847
2022-11-26T09:22:13.189Z,68.4664
2022-11-26T09:27:14.836Z,67.11885
2022-11-26T09:32:24.415Z,68.24532
2022-11-26T09:37:27.956Z,68.8823
2022-11-26T09:42:29.587Z,69.61498
2022-11-26T09:47:31.189Z,69.27827
2022-11-26T09:52:32.863Z,68.1437
2022-11-26T09:57:34.570Z,69.39291
2022-11-26T10:02:36.287Z,69.20913
2022-11-26T10:07:38.020Z,73.68708
2022-11-26T10:12:56.558Z,71.21154
2022-11-26T10:18:18.968Z,71.98446
2022-11-26T10:23:20.592Z,70.0466
2022-11-26T10:28:22.219Z,70.90198
2022-11-26T10:33:23.889Z,72.63285
2022-11-26T10:38:25.531Z,73.32107
2022-11-26T10:43:27.286Z,74.92139
2022-11-26T10:48:28.987Z,70.88393
2022-11-26T10:53:30.596Z,70.61571
2022-11-26T10:58:32.289Z,73.96492
2022-11-26T11:04:05.977Z,71.7015
2022-11-26T11:09:08.901Z,72.13545
2022-11-26T11:14:10.688Z,71.37819
2022-11-26T11:19:12.593Z,69.32145
2022-11-26T11:24:14.274Z,70.07967
2022-11-26T11:29:15.972Z,71.12647
2022-11-26T11:34:17.620Z,69.77542
2022-11-26T11:39:19.320Z,72.52237
2022-11-26T11:44:21.081Z,72.69194
2022-11-26T11:49:22.770Z,72.97591
2022-11-26T11:54:24.536Z,71.1416
2022-11-26T11:59:26.441Z,69.47687
2022-11-26T12:04:28.372Z,70.68395
2022-11-26T12:09:30.270Z,68.63765
2022-11-26T12:14:31.996Z,68.26942
2022-11-26T12:19:33.687Z,67.8556
2022-11-26T12:24:35.488Z,71.43314
2022-11-26T12:29:37.353Z,72.23551
2022-11-26T12:34:39.268Z,72.75842
2022-11-26T12:39:41.213Z,73.20777
2022-11-26T12:44:43.121Z,73.56245
2022-11-26T12:49:44.860Z,72.4512
2022-11-26T12:54:46.556Z,71.97384
2022-11-26T12:59:48.268Z,74.1395
2022-11-26T13:04:50.278Z,72.64131
2022-11-26T13:09:52.448Z,72.89549
2022-11-26T13:14:54.206Z,72.29317
2022-11-26T13:19:56.067Z,72.43678
2022-11-26T13:24:57.757Z,73.03767
2022-11-26T13:29:59.422Z,71.13205
2022-11-26T13:35:01.116Z,68.92825
2022-11-26T13:40:02.745Z,68.7753
2022-11-26T13:45:04.489Z,68.72722
2022-11-26T13:50:06.127Z,67.96927
2022-11-26T13:55:07.778Z,70.2438
2022-11-26T14:00:09.717Z,73.84021
2022-11-26T14:05:11.653Z,72.86962
2022-11-26T14:10:13.395Z,72.46018
2022-11-26T14:15:15.093Z,72.96551
2022-11-26T14:20:16.716Z,73.46153
2022-11-26T14:25:18.359Z,78.69031
2022-11-26T14:30:20.031Z,76.35165
2022-11-26T14:35:21.664Z,76.32096
2022-11-26T14:40:23.352Z,75.48214
2022-11-26T14:45:25.004Z,75.48946
2022-11-26T14:50:26.665Z,74.62607
2022-11-26T14:55:28.450Z,74.45181
2022-11-26T15:00:30.114Z,74.62908
2022-11-26T15:05:31.783Z,73.26286
2022-11-26T15:10:33.484Z,75.51365
2022-11-26T15:15:35.436Z,76.57719
2022-11-26T15:20:37.137Z,76.09196
2022-11-26T15:25:38.788Z,75.24682
2022-11-26T15:30:40.584Z,75.70021
2022-11-26T15:35:42.482Z,77.4587
2022-11-26T15:40:44.300Z,76.02141
2022-11-26T15:45:46.267Z,74.40952
2022-11-26T15:50:48.132Z,73.52973
2022-11-26T15:55:49.914Z,71.96737
2022-11-26T16:00:51.539Z,69.57225
2022-11-26T16:05:53.181Z,67.97726
2022-11-26T16:10:54.856Z,70.94785
2022-11-26T16:15:56.523Z,72.35035
2022-11-26T16:20:58.238Z,72.21887
2022-11-26T16:26:00.087Z,74.4237
2022-11-26T16:31:01.809Z,74.84663
2022-11-26T16:36:03.545Z,76.43604
2022-11-26T16:41:05.180Z,75.099
2022-11-26T16:46:06.979Z,75.91114
2022-11-26T16:51:08.661Z,74.74564
2022-11-26T16:56:10.483Z,74.69803
2022-11-26T17:01:12.134Z,74.17992
2022-11-26T17:06:14.011Z,73.18087
2022-11-26T17:11:15.701Z,72.91488
2022-11-26T17:16:17.403Z,73.32006
2022-11-26T17:21:19.176Z,71.42566
2022-11-26T17:26:20.850Z,70.69781
2022-11-26T17:31:22.568Z,71.52821
2022-11-26T17:36:24.241Z,70.72223
2022-11-26T17:41:25.874Z,68.62982
2022-11-26T17:46:27.616Z,68.82299
2022-11-26T17:51:29.360Z,67.22796
2022-11-26T17:56:30.983Z,66.31862
2022-11-26T18:01:32.704Z,66.27064
2022-11-26T18:06:34.412Z,66.27635
2022-11-26T18:11:36.092Z,67.22321
2022-11-26T18:16:37.788Z,67.79513
2022-11-26T18:21:39.503Z,67.22143
2022-11-26T18:26:41.204Z,68.24878
2022-11-26T18:31:43.013Z,65.67057
2022-11-26T18:36:48.161Z,67.01645
2022-11-26T18:41:57.316Z,64.69587
2022-11-26T18:47:09.289Z,65.27645
2022-11-26T18:52:11.770Z,63.74094
2022-11-26T18:57:13.502Z,66.47516
2022-11-26T19:02:15.318Z,64.65025
2022-11-26T19:07:17.349Z,64.17051
2022-11-26T19:12:19.106Z,64.07382
2022-11-26T19:17:21.152Z,64.32455
2022-11-26T19:22:22.874Z,64.32659
2022-11-26T19:27:24.618Z,63.59134
2022-11-26T19:32:26.364Z,63.08879
2022-11-26T19:37:28.020Z,61.93012
2022-11-26T19:42:29.741Z,64.17296
2022-11-26T19:47:31.484Z,60.97917
2022-11-26T19:52:33.198Z,62.1033
2022-11-26T19:57:34.986Z,61.75983
2022-11-26T20:02:36.756Z,60.83898
2022-11-26T20:07:38.883Z,60.2496
2022-11-26T20:12:40.568Z,61.41183
2022-11-26T20:17:42.314Z,62.52209
2022-11-26T20:22:44.181Z,63.81138
2022-11-26T20:27:45.980Z,63.39306
2022-11-26T20:32:47.683Z,63.37373
2022-11-26T20:37:49.398Z,62.90032
2022-11-26T20:42:51.116Z,65.80188
2022-11-26T20:47:52.787Z,67.97705
2022-11-26T20:52:54.461Z,67.50279
2022-11-26T20:57:56.104Z,67.64874
2022-11-26T21:02:57.849Z,67.26483
2022-11-26T21:07:59.641Z,67.85166
2022-11-26T21:13:01.402Z,67.12858
2022-11-26T21:18:03.118Z,64.87012
2022-11-26T21:23:04.946Z,63.98776
2022-11-26T21:28:06.552Z,65.36644
2022-11-26T21:33:09.683Z,67.63966
2022-11-26T21:38:11.484Z,67.27764
2022-11-26T21:43:13.217Z,66.84497
2022-11-26T21:48:15.246Z,68.57398
2022-11-26T21:53:16.931Z,69.6626
2022-11-26T21:58:18.677Z,69.76287
2022-11-26T22:03:20.314Z,69.59587
2022-11-26T22:08:21.986Z,69.1451
2022-11-26T22:13:23.650Z,68.24869
2022-11-26T22:18:25.598Z,69.3605
2022-11-26T22:23:27.287Z,70.85277
2022-11-26T22:28:30.256Z,70.19831
2022-11-26T22:33:32.085Z,69.85153
2022-11-26T22:38:33.713Z,71.42408
2022-11-26T22:43:35.354Z,70.61676
2022-11-26T22:48:37.215Z,70.7532
2022-11-26T22:53:38.923Z,70.38772
2022-11-26T22:58:40.705Z,69.73194
2022-11-26T23:03:42.493Z,69.74666
2022-11-26T23:08:44.259Z,70.5047
2022-11-26T23:13:46.121Z,69.57826
2022-11-26T23:18:47.953Z,69.64142
2022-11-26T23:23:49.815Z,69.14893
2022-11-26T23:28:51.996Z,68.92895
2022-11-26T23:33:53.722Z,68.34612
2022-11-26T23:38:55.577Z,68.66176
2022-11-26T23:43:57.342Z,69.35359
2022-11-26T23:48:59.137Z,69.37609
2022-11-26T23:54:00.901Z,70.01898
2022-11-26T23:59:02.630Z,69.80188
